createdAt,value
2022-08-05T00:02:39.837Z,62
2022-08-05T00:06:22.212Z,61
2022-08-05T00:09:30.374Z,62
2022-08-05T00:12:56.899Z,63
2022-08-05T00:16:35.779Z,63
2022-08-05T00:19:55.394Z,61
2022-08-05T00:23:13.074Z,60
2022-08-05T00:26:36.939Z,62
2022-08-05T00:30:03.340Z,63
2022-08-05T00:34:42.674Z,62
2022-08-05T00:37:12.239Z,60
2022-08-05T00:40:27.645Z,64
2022-08-05T00:43:47.439Z,64
2022-08-05T00:47:08.857Z,59
2022-08-05T00:50:34.214Z,58
2022-08-05T00:54:01.521Z,60
2022-08-05T00:57:25.324Z,58
2022-08-05T01:00:50.447Z,61
2022-08-05T01:04:15.723Z,60
2022-08-05T01:07:41.538Z,57
2022-08-05T01:11:06.199Z,58
2022-08-05T01:14:31.509Z,57
2022-08-05T01:17:56.804Z,59
2022-08-05T01:21:22.945Z,58
2022-08-05T01:24:47.430Z,58
2022-08-05T01:28:12.725Z,58
2022-08-05T01:31:42.825Z,60
2022-08-05T01:35:04.276Z,61
2022-08-05T01:38:30.111Z,59
2022-08-05T01:41:54.918Z,62
2022-08-05T01:45:20.270Z,60
2022-08-05T01:48:45.573Z,65
2022-08-05T01:52:12.465Z,62
2022-08-05T01:55:36.465Z,63
2022-08-05T01:59:01.539Z,63
2022-08-05T02:02:28.582Z,66
2022-08-05T02:05:53.464Z,62
2022-08-05T02:09:20.511Z,63
2022-08-05T02:12:42.774Z,61
2022-08-05T02:16:08.099Z,64
2022-08-05T02:19:34.637Z,63
2022-08-05T02:22:58.703Z,63
2022-08-05T02:26:24.014Z,61
2022-08-05T02:29:58.341Z,63
2022-08-05T02:33:14.681Z,61
2022-08-05T02:36:39.961Z,61
2022-08-05T02:40:05.280Z,63
2022-08-05T02:43:30.604Z,68
2022-08-05T02:46:58.597Z,65
2022-08-05T02:50:21.229Z,63
2022-08-05T02:53:46.604Z,64
2022-08-05T02:58:09.537Z,61
2022-08-05T03:00:37.356Z,63
2022-08-05T03:04:08.869Z,61
2022-08-05T03:07:59.171Z,61
2022-08-05T03:11:01.213Z,61
2022-08-05T03:14:13.411Z,62
2022-08-05T03:17:41.555Z,61
2022-08-05T03:21:01.304Z,60
2022-08-05T03:24:26.922Z,60
2022-08-05T03:27:59.713Z,60
2022-08-05T03:31:18.362Z,60
2022-08-05T03:34:42.667Z,60
2022-08-05T03:38:08.000Z,60
2022-08-05T03:41:38.732Z,61
2022-08-05T03:44:58.626Z,60
2022-08-05T03:48:23.989Z,60
2022-08-05T03:52:36.183Z,61
2022-08-05T03:55:54.314Z,60
2022-08-05T03:58:41.072Z,61
2022-08-05T04:02:05.441Z,60
2022-08-05T04:05:33.509Z,59
2022-08-05T04:08:56.042Z,57
2022-08-05T04:12:23.481Z,57
2022-08-05T04:15:52.927Z,56
2022-08-05T04:19:12.157Z,56
2022-08-05T04:22:37.514Z,55
2022-08-05T04:26:02.880Z,56
2022-08-05T04:29:28.304Z,58
2022-08-05T04:32:53.692Z,59
2022-08-05T04:36:46.364Z,59
2022-08-05T04:39:44.312Z,60
2022-08-05T04:43:11.111Z,62
2022-08-05T04:46:34.920Z,63
2022-08-05T04:50:02.212Z,64
2022-08-05T04:53:25.545Z,64
2022-08-05T04:56:50.854Z,65
2022-08-05T05:00:16.161Z,65
2022-08-05T05:03:41.997Z,65
2022-08-05T05:07:09.322Z,65
2022-08-05T05:10:33.487Z,65
2022-08-05T05:13:57.458Z,65
2022-08-05T05:17:24.422Z,65
2022-08-05T05:20:48.379Z,66
2022-08-05T05:24:13.686Z,66
2022-08-05T05:27:41.888Z,66
2022-08-05T05:31:05.703Z,66
2022-08-05T05:34:29.649Z,66
2022-08-05T05:37:59.240Z,67
2022-08-05T05:41:20.296Z,67
2022-08-05T05:44:46.035Z,67
2022-08-05T05:48:10.953Z,67
2022-08-05T05:51:42.841Z,67
2022-08-05T05:55:01.685Z,67
2022-08-05T05:58:30.431Z,67
2022-08-05T06:01:57.474Z,67
2022-08-05T06:05:17.625Z,67
2022-08-05T06:08:42.881Z,67
2022-08-05T06:12:09.614Z,67
2022-08-05T06:16:28.106Z,67
2022-08-05T06:19:00.177Z,67
2022-08-05T06:22:24.181Z,67
2022-08-05T06:26:00.285Z,67
2022-08-05T06:29:24.821Z,67
2022-08-05T06:32:40.144Z,67
2022-08-05T06:36:08.151Z,68
2022-08-05T06:39:30.799Z,68
2022-08-05T06:42:56.061Z,68
2022-08-05T06:46:21.377Z,67
2022-08-05T06:50:01.015Z,67
2022-08-05T06:53:22.772Z,66
2022-08-05T06:56:37.309Z,66
2022-08-05T07:00:02.625Z,66
2022-08-05T07:03:32.613Z,67
2022-08-05T07:06:53.259Z,66
2022-08-05T07:10:18.581Z,67
2022-08-05T07:13:58.623Z,66
2022-08-05T07:17:58.039Z,66
2022-08-05T07:20:37.304Z,66
2022-08-05T07:24:01.186Z,66
2022-08-05T07:27:27.511Z,65
2022-08-05T07:30:52.744Z,64
2022-08-05T07:34:15.862Z,65
2022-08-05T07:37:41.188Z,63
2022-08-05T07:41:17.259Z,63
2022-08-05T07:44:31.999Z,63
2022-08-05T07:47:57.389Z,62
2022-08-05T07:51:23.263Z,64
2022-08-05T07:54:49.172Z,61
2022-08-05T07:58:17.731Z,61
2022-08-05T08:01:41.527Z,60
2022-08-05T08:05:04.166Z,60
2022-08-05T08:08:29.548Z,59
2022-08-05T08:11:59.068Z,59
2022-08-05T08:15:37.508Z,59
2022-08-05T08:18:50.038Z,59
2022-08-05T08:22:11.056Z,57
2022-08-05T08:26:00.985Z,57
2022-08-05T08:29:02.559Z,57
2022-08-05T08:32:27.724Z,56
2022-08-05T08:35:57.845Z,55
2022-08-05T08:39:17.826Z,56
2022-08-05T08:42:50.326Z,57
2022-08-05T08:46:09.917Z,56
2022-08-05T08:50:05.624Z,55
2022-08-05T08:52:59.157Z,55
2022-08-05T08:56:27.058Z,57
2022-08-05T08:59:49.878Z,56
2022-08-05T09:03:16.082Z,56
2022-08-05T09:06:40.581Z,55
2022-08-05T09:10:05.987Z,55
2022-08-05T09:13:41.481Z,55
2022-08-05T09:16:57.790Z,56
2022-08-05T09:20:36.834Z,57
2022-08-05T09:23:47.768Z,53
2022-08-05T09:27:13.185Z,54
2022-08-05T09:30:38.581Z,54
2022-08-05T09:34:03.926Z,54
2022-08-05T09:38:11.820Z,56
2022-08-05T09:40:54.601Z,55
2022-08-05T09:44:19.959Z,55
2022-08-05T09:47:48.930Z,54
2022-08-05T09:51:14.729Z,55
2022-08-05T09:54:35.972Z,57
2022-08-05T09:58:01.366Z,54
2022-08-05T10:01:31.666Z,53
2022-08-05T10:04:52.101Z,51
2022-08-05T10:08:37.165Z,50
2022-08-05T10:11:42.773Z,48
2022-08-05T10:15:08.086Z,47
2022-08-05T10:18:33.397Z,46
2022-08-05T10:21:58.724Z,45
2022-08-05T10:25:24.025Z,47
2022-08-05T10:28:49.416Z,46
2022-08-05T10:32:51.370Z,46
2022-08-05T10:35:40.463Z,45
2022-08-05T10:39:58.841Z,46
2022-08-05T10:43:07.259Z,44
2022-08-05T10:46:35.747Z,44
2022-08-05T10:50:20.233Z,45
2022-08-05T10:53:26.390Z,45
2022-08-05T10:56:52.773Z,45
2022-08-05T11:00:20.628Z,45
2022-08-05T11:03:45.152Z,45
2022-08-05T11:07:10.440Z,47
2022-08-05T11:10:36.802Z,46
2022-08-05T11:14:02.130Z,45
2022-08-05T11:17:56.955Z,45
2022-08-05T11:20:52.810Z,46
2022-08-05T11:24:29.902Z,45
2022-08-05T11:27:51.636Z,45
2022-08-05T11:31:08.972Z,43
2022-08-05T11:34:34.300Z,44
2022-08-05T11:38:27.349Z,44
2022-08-05T11:41:35.246Z,44
2022-08-05T11:44:53.499Z,42
2022-08-05T11:48:16.013Z,43
2022-08-05T11:51:43.900Z,43
2022-08-05T11:55:07.222Z,44
2022-08-05T11:58:32.051Z,46
2022-08-05T12:01:57.380Z,46
2022-08-05T12:05:24.881Z,46
2022-08-05T12:08:50.145Z,47
2022-08-05T12:12:13.375Z,47
2022-08-05T12:15:40.086Z,47
2022-08-05T12:19:04.275Z,48
2022-08-05T12:22:30.252Z,47
2022-08-05T12:26:15.256Z,49
2022-08-05T12:29:40.401Z,48
2022-08-05T12:33:07.041Z,47
2022-08-05T12:36:32.705Z,45
2022-08-05T12:40:03.078Z,46
2022-08-05T12:43:26.850Z,45
2022-08-05T12:47:28.654Z,45
2022-08-05T12:50:51.442Z,45
2022-08-05T12:54:23.328Z,44
2022-08-05T12:57:44.955Z,44
2022-08-05T13:01:59.234Z,44
2022-08-05T13:04:33.887Z,43
2022-08-05T13:08:00.957Z,44
2022-08-05T13:11:25.794Z,43
2022-08-05T13:14:59.295Z,43
2022-08-05T13:18:19.967Z,43
2022-08-05T13:21:48.128Z,43
2022-08-05T13:25:18.910Z,45
2022-08-05T13:28:40.948Z,44
2022-08-05T13:32:06.646Z,45
2022-08-05T13:35:43.483Z,43
2022-08-05T13:38:57.734Z,41
2022-08-05T13:42:23.017Z,42
2022-08-05T13:45:48.705Z,42
2022-08-05T13:49:14.205Z,43
2022-08-05T13:52:40.222Z,43
2022-08-05T13:56:18.242Z,42
2022-08-05T13:59:59.562Z,41
2022-08-05T14:03:22.621Z,41
2022-08-05T14:06:48.469Z,40
2022-08-05T14:10:18.587Z,40
2022-08-05T14:13:43.048Z,40
2022-08-05T14:17:16.767Z,41
2022-08-05T14:20:47.047Z,41
2022-08-05T14:24:08.827Z,42
2022-08-05T14:27:34.183Z,42
2022-08-05T15:06:12.694Z,42
2022-08-05T15:09:50.737Z,42
2022-08-05T15:13:03.246Z,43
2022-08-05T15:16:27.525Z,42
2022-08-05T15:19:52.961Z,43
2022-08-05T15:23:18.347Z,44
2022-08-05T15:26:43.737Z,43
2022-08-05T15:30:09.093Z,44
2022-08-05T15:33:56.977Z,44
2022-08-05T15:37:02.336Z,44
2022-08-05T15:40:42.422Z,44
2022-08-05T15:43:50.726Z,44
2022-08-05T15:47:15.878Z,44
2022-08-05T15:50:41.220Z,44
2022-08-05T15:54:08.108Z,44
2022-08-05T15:57:32.986Z,45
2022-08-05T16:01:04.604Z,45
2022-08-05T16:04:25.313Z,45
2022-08-05T16:07:49.061Z,46
2022-08-05T16:11:13.290Z,47
2022-08-05T16:14:38.675Z,47
2022-08-05T16:18:08.999Z,48
2022-08-05T16:21:58.347Z,49
2022-08-05T16:24:55.271Z,50
2022-08-05T16:28:20.700Z,51
2022-08-05T16:31:56.563Z,51
2022-08-05T16:35:11.531Z,52
2022-08-05T16:38:36.885Z,53
2022-08-05T16:42:13.214Z,53
2022-08-05T16:46:05.720Z,55
2022-08-05T16:48:53.089Z,56
2022-08-05T16:52:19.425Z,58
2022-08-05T16:55:46.679Z,59
2022-08-05T16:59:10.192Z,61
2022-08-05T17:02:35.525Z,62
2022-08-05T17:06:00.874Z,63
2022-08-05T17:09:26.262Z,65
2022-08-05T17:12:52.367Z,66
2022-08-05T17:16:29.973Z,67
2022-08-05T17:19:42.522Z,68
2022-08-05T17:23:07.999Z,69
2022-08-05T17:26:33.418Z,70
2022-08-05T17:29:59.690Z,70
2022-08-05T17:33:24.089Z,71
2022-08-05T17:36:49.444Z,72
2022-08-05T17:40:14.804Z,72
2022-08-05T17:43:46.634Z,73
2022-08-05T17:47:05.340Z,74
2022-08-05T17:50:30.951Z,75
2022-08-05T17:53:55.992Z,75
2022-08-05T17:57:21.341Z,75
2022-08-05T18:00:47.384Z,76
2022-08-05T18:04:12.121Z,76
2022-08-05T18:07:41.031Z,76
2022-08-05T18:11:03.042Z,76
2022-08-05T18:14:28.254Z,76
2022-08-05T18:17:58.158Z,76
2022-08-05T18:21:19.764Z,76
2022-08-05T18:24:51.075Z,75
2022-08-05T18:28:21.767Z,75
2022-08-05T18:31:45.874Z,75
2022-08-05T18:35:11.477Z,75
2022-08-05T18:38:36.776Z,75
2022-08-05T18:42:10.600Z,74
2022-08-05T18:45:41.164Z,75
2022-08-05T18:48:57.199Z,75
2022-08-05T18:52:32.781Z,74
2022-08-05T18:55:48.094Z,74
2022-08-05T18:59:42.459Z,75
2022-08-05T19:02:39.247Z,75
2022-08-05T19:06:06.604Z,75
2022-08-05T19:09:29.764Z,75
2022-08-05T19:12:55.265Z,75
2022-08-05T19:16:24.320Z,75
2022-08-05T19:19:46.712Z,75
2022-08-05T19:23:22.951Z,75
2022-08-05T19:26:36.868Z,75
2022-08-05T19:30:02.776Z,75
2022-08-05T19:33:35.012Z,75
2022-08-05T19:36:53.248Z,75
2022-08-05T19:40:18.732Z,75
2022-08-05T19:44:04.991Z,74
2022-08-05T19:47:09.570Z,74
2022-08-05T19:50:34.801Z,74
2022-08-05T19:54:03.802Z,74
2022-08-05T19:57:46.642Z,74
2022-08-05T20:00:50.868Z,74
2022-08-05T20:04:16.170Z,74
2022-08-05T20:07:47.599Z,74
2022-08-05T20:11:06.775Z,73
2022-08-05T20:14:32.112Z,74
2022-08-05T20:17:57.454Z,72
2022-08-05T20:21:22.776Z,71
2022-08-05T20:24:48.109Z,70
2022-08-05T20:28:13.530Z,68
2022-08-05T20:31:43.157Z,66
2022-08-05T20:35:04.064Z,67
2022-08-05T20:38:31.372Z,67
2022-08-05T20:41:54.693Z,67
2022-08-05T20:45:20.978Z,67
2022-08-05T20:48:45.335Z,65
2022-08-05T20:52:12.269Z,64
2022-08-05T20:55:55.938Z,62
2022-08-05T20:59:04.186Z,67
2022-08-05T21:02:26.891Z,67
2022-08-05T21:05:54.191Z,64
2022-08-05T21:09:17.307Z,62
2022-08-05T21:12:58.426Z,67
2022-08-05T21:16:08.039Z,66
2022-08-05T21:19:43.398Z,67
2022-08-05T21:22:58.935Z,68
2022-08-05T21:26:24.330Z,69
2022-08-05T21:29:50.873Z,70
2022-08-05T21:33:22.176Z,72
2022-08-05T21:36:42.382Z,73
2022-08-05T21:40:05.920Z,74
2022-08-05T21:43:33.638Z,73
2022-08-05T21:46:57.953Z,73
2022-08-05T21:50:22.152Z,73
2022-08-05T21:53:47.110Z,74
2022-08-05T21:57:30.491Z,74
2022-08-05T22:00:37.828Z,73
2022-08-05T22:04:03.056Z,75
2022-08-05T22:07:39.631Z,76
2022-08-05T22:10:53.712Z,75
2022-08-05T22:14:34.769Z,75
2022-08-05T22:17:48.624Z,76
2022-08-05T22:21:18.675Z,75
2022-08-05T22:24:39.856Z,76
2022-08-05T22:28:04.818Z,76
2022-08-05T22:31:30.091Z,76
2022-08-05T22:34:51.069Z,78
2022-08-05T22:38:16.378Z,79
2022-08-05T22:42:05.197Z,78
2022-08-05T22:45:07.033Z,78
2022-08-05T22:48:32.349Z,79
2022-08-05T22:52:03.152Z,78
2022-08-05T22:55:23.011Z,78
2022-08-05T22:58:48.345Z,78
2022-08-05T23:02:16.707Z,78
2022-08-05T23:05:39.038Z,79
2022-08-05T23:09:24.813Z,79
2022-08-05T23:12:29.680Z,78
2022-08-05T23:15:55.000Z,78
2022-08-05T23:19:23.923Z,79
2022-08-05T23:22:47.389Z,79
2022-08-05T23:26:10.983Z,78
2022-08-05T23:29:36.630Z,79
2022-08-05T23:33:01.574Z,79
2022-08-05T23:36:28.429Z,79
2022-08-05T23:39:54.119Z,79
2022-08-05T23:43:24.722Z,80
2022-08-05T23:46:42.881Z,80
2022-08-05T23:50:09.304Z,81
2022-08-05T23:53:46.272Z,80
2022-08-05T23:57:03.555Z,80
